Dustin Danos — WDE9077 — position and weather

sailwx.info

Track history (hours):
 
Tides and Currents Weather Stations Pressure Air Temp Water Temp Dewpoint Dewpoint Depression Visibility Wind Speed Wind Dir Waves Ship Positions

Dustin Danos

Owner: Offshore Transport Services LLC, Cut Off, LA. More information available from US FCC via Universal Licensing System and Coast Guard Vessel Documentation Center.

Last reported at 2018-May-23 21:40 UTC. Time now 2018-May-24 00:33 UTC.
Position N 29°36' W 092°18'.

Length 44 m.

Type: Cargo ship. MMSI: 367413160.

Date/timePositionNaut miles runAvg speedWind from/ knotsBaromVisibWave heightAir tempDewpointWater temp
2018-May-23 21:40N 29°36' W 092°18'1 7.2
2018-May-23 21:31N 29°37' W 092°17'4 7.3
2018-May-23 21:01N 29°40' W 092°15'4 8.0
2018-May-23 20:31N 29°44' W 092°15'4 7.6
2018-May-23 20:00N 29°46' W 092°11'1 1.5
2018-May-23 19:30N 29°47' W 092°11'0 0.0
2018-May-23 19:00N 29°47' W 092°11'0 0.0
2018-May-23 18:30N 29°47' W 092°11'0 0.0
2018-May-23 18:00N 29°47' W 092°11'0 0.0
2018-May-23 17:31N 29°47' W 092°11'0 0.0
2018-May-23 17:00N 29°47' W 092°11'0 0.0
2018-May-23 16:29N 29°47' W 092°11'0 0.0
2018-May-23 16:01N 29°47' W 092°11'0 0.0
2018-May-23 15:31N 29°47' W 092°11'0 0.0
2018-May-23 15:00N 29°47' W 092°11'2 3.3
2018-May-23 14:31N 29°47' W 092°09'2 3.1
2018-May-23 14:01N 29°47' W 092°11'0 0.2
2018-May-23 13:30N 29°47' W 092°11'0 0.0
2018-May-23 13:00N 29°47' W 092°11'0 0.0
2018-May-23 12:30N 29°47' W 092°11'0 0.0
2018-May-23 12:00N 29°47' W 092°11'0 0.0
2018-May-23 11:30N 29°47' W 092°11'0 0.0
2018-May-23 11:01N 29°47' W 092°11'0 0.0
2018-May-23 10:30N 29°47' W 092°11'0 0.0
2018-May-23 09:59N 29°47' W 092°11'0 0.0
2018-May-23 09:30N 29°47' W 092°11'0 0.0
2018-May-23 09:01N 29°47' W 092°11'0 0.0
2018-May-23 08:30N 29°47' W 092°11'0 0.0
2018-May-23 07:59N 29°47' W 092°11'0 0.0
2018-May-23 07:30N 29°47' W 092°11'0 0.0
2018-May-23 07:00N 29°47' W 092°11'0 0.0
2018-May-23 06:30N 29°47' W 092°11'0 0.0
2018-May-23 05:58N 29°47' W 092°11'0 0.0
2018-May-23 05:28N 29°47' W 092°11'0 0.0
2018-May-23 05:00N 29°47' W 092°11'0 0.0
2018-May-23 04:30N 29°47' W 092°11'0 0.0
2018-May-23 04:00N 29°47' W 092°11'0 0.0
2018-May-23 03:31N 29°47' W 092°11'0 0.0
2018-May-23 03:00N 29°47' W 092°11'0 0.0
2018-May-23 02:30N 29°47' W 092°11'0 0.0
2018-May-23 01:59N 29°47' W 092°11'0 0.0
2018-May-23 01:29N 29°47' W 092°11'0 0.0
2018-May-23 01:01N 29°47' W 092°11'0 0.0
2018-May-23 00:30N 29°47' W 092°11'0 0.0
2018-May-22 23:59N 29°47' W 092°11'0 0.0
2018-May-22 23:30N 29°47' W 092°11'0 0.0
2018-May-22 23:00N 29°47' W 092°11'0 0.0
2018-May-22 22:30N 29°47' W 092°11'0 0.0
2018-May-22 22:00N 29°47' W 092°11'0 0.0
2018-May-22 21:30N 29°47' W 092°11'0 0.0
2018-May-22 21:00N 29°47' W 092°11'0 0.0
2018-May-22 20:29N 29°47' W 092°11'0 0.0
2018-May-22 20:00N 29°47' W 092°11'0 0.0
2018-May-22 19:31N 29°47' W 092°11'0 0.0
2018-May-22 19:00N 29°47' W 092°11'0 0.0
2018-May-22 18:29N 29°47' W 092°11'0 0.0
2018-May-22 18:00N 29°47' W 092°11'0 0.0
2018-May-22 17:30N 29°47' W 092°11'  
2018-May-18 09:08N 28°09' W 091°54'0 0.0
2018-May-18 08:50N 28°09' W 091°54'0 0.0
2018-May-18 06:52N 28°09' W 091°54'0 0.0
2018-May-18 06:30N 28°09' W 091°54'2 3.6
2018-May-18 05:59N 28°10' W 091°56'5 9.2
2018-May-18 05:29N 28°14' W 091°59'4 9.2
2018-May-18 05:00N 28°18' W 092°02'5 9.1
2018-May-18 04:29N 28°22' W 092°05'4 9.0
2018-May-18 04:00N 28°25' W 092°07'5 9.2
2018-May-18 03:30N 28°29' W 092°10'5 9.2
2018-May-18 02:57N 28°34' W 092°13'4 9.0
2018-May-18 02:31N 28°37' W 092°16'5 9.1
2018-May-18 01:59N 28°41' W 092°18'67 5.5
2018-May-17 13:46N 29°48' W 092°09'0 0.0
2018-May-17 12:18N 29°48' W 092°09'2 1.0
2018-May-17 10:14N 29°47' W 092°11'0 1.0
2018-May-17 09:46N 29°47' W 092°11'0 0.0
2018-May-17 09:29N 29°47' W 092°11'0 0.0
2018-May-17 09:00N 29°47' W 092°11'0 0.0
2018-May-17 08:27N 29°47' W 092°11'0 0.0
2018-May-17 07:51N 29°47' W 092°11'0 0.0
2018-May-17 07:21N 29°47' W 092°11'0 0.0
2018-May-17 07:00N 29°47' W 092°11'0 0.0
2018-May-17 04:49N 29°47' W 092°11'0 0.0
2018-May-17 04:21N 29°47' W 092°11'0 0.0
2018-May-17 02:41N 29°47' W 092°11'0 0.0
2018-May-17 02:12N 29°47' W 092°11'0 0.0
2018-May-17 01:59N 29°47' W 092°11'0 0.0
2018-May-17 01:15N 29°47' W 092°11'0 0.0
2018-May-17 01:00N 29°47' W 092°11'0 0.0
2018-May-16 13:50N 29°47' W 092°11'0 0.0
2018-May-16 13:19N 29°47' W 092°11'0 0.0
2018-May-16 13:00N 29°47' W 092°11'0 0.0
2018-May-16 12:30N 29°47' W 092°11'0 0.0
2018-May-16 11:43N 29°47' W 092°11'0 0.0
2018-May-16 11:30N 29°47' W 092°11'0 0.0
2018-May-16 10:58N 29°47' W 092°11'0 0.0
2018-May-16 10:31N 29°47' W 092°11'0 0.0
2018-May-16 09:56N 29°47' W 092°11'0 0.0
2018-May-16 09:30N 29°47' W 092°11'0 0.0
2018-May-16 08:56N 29°47' W 092°11'0 0.0
2018-May-16 08:30N 29°47' W 092°11'15 0.8
2018-May-15 14:37N 29°33' W 092°18'0 2.3
2018-May-15 14:24N 29°33' W 092°18'2 6.0
2018-May-15 14:00N 29°30' W 092°19'4 7.8
2018-May-15 13:30N 29°27' W 092°19'5 9.1
2018-May-15 13:00N 29°22' W 092°20'5 8.7
2018-May-15 12:28N 29°17' W 092°21'12 7.6
2018-May-15 10:50N 29°08' W 092°12'23 9.6
2018-May-15 08:25N 28°58' W 091°48'2310.0
2018-May-15 06:08N 28°52' W 091°22'  
Track history (hours):
 
Tides and Currents Weather Stations Pressure Air Temp Water Temp Dewpoint Dewpoint Depression Visibility Wind Speed Wind Dir Waves Ship Positions

Dustin Danos

Owner: Offshore Transport Services LLC, Cut Off, LA. More information available from US FCC via Universal Licensing System and Coast Guard Vessel Documentation Center.

Last reported at 2018-May-23 21:40 UTC. Time now 2018-May-24 00:33 UTC.
Position N 29°36' W 092°18'.

Length 44 m.

Type: Cargo ship. MMSI: 367413160.

Date/timePositionNaut miles runAvg speedWind from/ knotsBaromVisibWave heightAir tempDewpointWater temp
2018-May-23 21:40N 29°36' W 092°18'1 7.2
2018-May-23 21:31N 29°37' W 092°17'4 7.3
2018-May-23 21:01N 29°40' W 092°15'4 8.0
2018-May-23 20:31N 29°44' W 092°15'4 7.6
2018-May-23 20:00N 29°46' W 092°11'1 1.5
2018-May-23 19:30N 29°47' W 092°11'0 0.0
2018-May-23 19:00N 29°47' W 092°11'0 0.0
2018-May-23 18:30N 29°47' W 092°11'0 0.0
2018-May-23 18:00N 29°47' W 092°11'0 0.0
2018-May-23 17:31N 29°47' W 092°11'0 0.0
2018-May-23 17:00N 29°47' W 092°11'0 0.0
2018-May-23 16:29N 29°47' W 092°11'0 0.0
2018-May-23 16:01N 29°47' W 092°11'0 0.0
2018-May-23 15:31N 29°47' W 092°11'0 0.0
2018-May-23 15:00N 29°47' W 092°11'2 3.3
2018-May-23 14:31N 29°47' W 092°09'2 3.1
2018-May-23 14:01N 29°47' W 092°11'0 0.2
2018-May-23 13:30N 29°47' W 092°11'0 0.0
2018-May-23 13:00N 29°47' W 092°11'0 0.0
2018-May-23 12:30N 29°47' W 092°11'0 0.0
2018-May-23 12:00N 29°47' W 092°11'0 0.0
2018-May-23 11:30N 29°47' W 092°11'0 0.0
2018-May-23 11:01N 29°47' W 092°11'0 0.0
2018-May-23 10:30N 29°47' W 092°11'0 0.0
2018-May-23 09:59N 29°47' W 092°11'0 0.0
2018-May-23 09:30N 29°47' W 092°11'0 0.0
2018-May-23 09:01N 29°47' W 092°11'0 0.0
2018-May-23 08:30N 29°47' W 092°11'0 0.0
2018-May-23 07:59N 29°47' W 092°11'0 0.0
2018-May-23 07:30N 29°47' W 092°11'0 0.0
2018-May-23 07:00N 29°47' W 092°11'0 0.0
2018-May-23 06:30N 29°47' W 092°11'0 0.0
2018-May-23 05:58N 29°47' W 092°11'0 0.0
2018-May-23 05:28N 29°47' W 092°11'0 0.0
2018-May-23 05:00N 29°47' W 092°11'0 0.0
2018-May-23 04:30N 29°47' W 092°11'0 0.0
2018-May-23 04:00N 29°47' W 092°11'0 0.0
2018-May-23 03:31N 29°47' W 092°11'0 0.0
2018-May-23 03:00N 29°47' W 092°11'0 0.0
2018-May-23 02:30N 29°47' W 092°11'0 0.0
2018-May-23 01:59N 29°47' W 092°11'0 0.0
2018-May-23 01:29N 29°47' W 092°11'0 0.0
2018-May-23 01:01N 29°47' W 092°11'0 0.0
2018-May-23 00:30N 29°47' W 092°11'0 0.0
2018-May-22 23:59N 29°47' W 092°11'0 0.0
2018-May-22 23:30N 29°47' W 092°11'0 0.0
2018-May-22 23:00N 29°47' W 092°11'0 0.0
2018-May-22 22:30N 29°47' W 092°11'0 0.0
2018-May-22 22:00N 29°47' W 092°11'0 0.0
2018-May-22 21:30N 29°47' W 092°11'0 0.0
2018-May-22 21:00N 29°47' W 092°11'0 0.0
2018-May-22 20:29N 29°47' W 092°11'0 0.0
2018-May-22 20:00N 29°47' W 092°11'0 0.0
2018-May-22 19:31N 29°47' W 092°11'0 0.0
2018-May-22 19:00N 29°47' W 092°11'0 0.0
2018-May-22 18:29N 29°47' W 092°11'0 0.0
2018-May-22 18:00N 29°47' W 092°11'0 0.0
2018-May-22 17:30N 29°47' W 092°11'  
2018-May-18 09:08N 28°09' W 091°54'0 0.0
2018-May-18 08:50N 28°09' W 091°54'0 0.0
2018-May-18 06:52N 28°09' W 091°54'0 0.0
2018-May-18 06:30N 28°09' W 091°54'2 3.6
2018-May-18 05:59N 28°10' W 091°56'5 9.2
2018-May-18 05:29N 28°14' W 091°59'4 9.2
2018-May-18 05:00N 28°18' W 092°02'5 9.1
2018-May-18 04:29N 28°22' W 092°05'4 9.0
2018-May-18 04:00N 28°25' W 092°07'5 9.2
2018-May-18 03:30N 28°29' W 092°10'5 9.2
2018-May-18 02:57N 28°34' W 092°13'4 9.0
2018-May-18 02:31N 28°37' W 092°16'5 9.1
2018-May-18 01:59N 28°41' W 092°18'67 5.5
2018-May-17 13:46N 29°48' W 092°09'0 0.0
2018-May-17 12:18N 29°48' W 092°09'2 1.0
2018-May-17 10:14N 29°47' W 092°11'0 1.0
2018-May-17 09:46N 29°47' W 092°11'0 0.0
2018-May-17 09:29N 29°47' W 092°11'0 0.0
2018-May-17 09:00N 29°47' W 092°11'0 0.0
2018-May-17 08:27N 29°47' W 092°11'0 0.0
2018-May-17 07:51N 29°47' W 092°11'0 0.0
2018-May-17 07:21N 29°47' W 092°11'0 0.0
2018-May-17 07:00N 29°47' W 092°11'0 0.0
2018-May-17 04:49N 29°47' W 092°11'0 0.0
2018-May-17 04:21N 29°47' W 092°11'0 0.0
2018-May-17 02:41N 29°47' W 092°11'0 0.0
2018-May-17 02:12N 29°47' W 092°11'0 0.0
2018-May-17 01:59N 29°47' W 092°11'0 0.0
2018-May-17 01:15N 29°47' W 092°11'0 0.0
2018-May-17 01:00N 29°47' W 092°11'0 0.0
2018-May-16 13:50N 29°47' W 092°11'0 0.0
2018-May-16 13:19N 29°47' W 092°11'0 0.0
2018-May-16 13:00N 29°47' W 092°11'0 0.0
2018-May-16 12:30N 29°47' W 092°11'0 0.0
2018-May-16 11:43N 29°47' W 092°11'0 0.0
2018-May-16 11:30N 29°47' W 092°11'0 0.0
2018-May-16 10:58N 29°47' W 092°11'0 0.0
2018-May-16 10:31N 29°47' W 092°11'0 0.0
2018-May-16 09:56N 29°47' W 092°11'0 0.0
2018-May-16 09:30N 29°47' W 092°11'0 0.0
2018-May-16 08:56N 29°47' W 092°11'0 0.0
2018-May-16 08:30N 29°47' W 092°11'15 0.8
2018-May-15 14:37N 29°33' W 092°18'0 2.3
2018-May-15 14:24N 29°33' W 092°18'2 6.0
2018-May-15 14:00N 29°30' W 092°19'4 7.8
2018-May-15 13:30N 29°27' W 092°19'5 9.1
2018-May-15 13:00N 29°22' W 092°20'5 8.7
2018-May-15 12:28N 29°17' W 092°21'12 7.6
2018-May-15 10:50N 29°08' W 092°12'23 9.6
2018-May-15 08:25N 28°58' W 091°48'2310.0
2018-May-15 06:08N 28°52' W 091°22'  

Dump ship's entire track history